Time;durP1;ratioP1;P1;durP2;ratioP2;P2;SDS_P1;SDS_P2;PMS_P1;PMS_P2;Temp;Humidity;BMP_temperature;BMP_pressure;BME280_temperature;BME280_humidity;BME280_pressure;Samples;Min_cycle;Max_cycle;Signal;HPM_P1;HPM_P2
2022/06/05 00:03:21;;;;;;;8.57;7.67;;;;;;;;;;6198405;28;20241;-76
2022/06/05 00:06:48;;;;;;;6.97;6.45;;;;;;;;;;6194613;28;20248;-77
2022/06/05 00:10:10;;;;;;;6.97;6.37;;;;;;;;;;6201800;28;20220;-77
2022/06/05 00:13:33;;;;;;;7.27;6.23;;;;;;;;;;6202723;28;20596;-77
2022/06/05 00:16:54;;;;;;;7.88;7.13;;;;;;;;;;6196144;28;20229;-78
2022/06/05 00:20:16;;;;;;;7.90;7.30;;;;;;;;;;6207735;28;20607;-77
2022/06/05 00:23:37;;;;;;;8.20;7.40;;;;;;;;;;6201538;28;20625;-76
2022/06/05 00:27:01;;;;;;;8.67;7.70;;;;;;;;;;6199231;28;20233;-76
2022/06/05 00:30:27;;;;;;;7.50;6.90;;;;;;;;;;6200216;28;20252;-76
2022/06/05 00:33:48;;;;;;;9.17;7.80;;;;;;;;;;6201205;28;21860;-78
2022/06/05 00:37:19;;;;;;;8.93;8.17;;;;;;;;;;6203212;28;20708;-78
2022/06/05 00:40:51;;;;;;;7.73;7.13;;;;;;;;;;6202292;28;20225;-76
2022/06/05 00:44:14;;;;;;;8.97;8.17;;;;;;;;;;6205380;28;20232;-76
2022/06/05 00:47:35;;;;;;;9.23;8.50;;;;;;;;;;6204505;28;20233;-76
2022/06/05 00:50:59;;;;;;;8.37;7.67;;;;;;;;;;6205294;28;20244;-77
2022/06/05 00:54:21;;;;;;;9.40;7.93;;;;;;;;;;6208256;28;20228;-77
2022/06/05 00:57:44;;;;;;;9.13;8.20;;;;;;;;;;6200823;28;20228;-76
2022/06/05 01:01:07;;;;;;;9.47;8.63;;;;;;;;;;6201818;28;20498;-77
2022/06/05 01:04:29;;;;;;;8.43;7.70;;;;;;;;;;6208165;28;20603;-76
2022/06/05 01:07:50;;;;;;;8.37;7.77;;;;;;;;;;6200417;28;20228;-76
2022/06/05 01:11:16;;;;;;;8.37;7.67;;;;;;;;;;6227967;28;20429;-76
2022/06/05 01:14:42;;;;;;;9.30;8.50;;;;;;;;;;6226408;28;20232;-76
2022/06/05 01:18:04;;;;;;;8.80;7.90;;;;;;;;;;6222708;28;20248;-76
2022/06/05 01:21:35;;;;;;;10.17;8.70;;;;;;;;;;6198479;28;20318;-76
2022/06/05 01:25:03;;;;;;;11.40;10.30;;;;;;;;;;6213096;28;20364;-77
2022/06/05 01:28:26;;;;;;;8.90;8.17;;;;;;;;;;6215698;28;20235;-76
2022/06/05 01:31:50;;;;;;;9.33;8.53;;;;;;;;;;6228871;28;20241;-75
2022/06/05 01:35:17;;;;;;;9.73;8.93;;;;;;;;;;6208804;28;20271;-76
2022/06/05 01:38:42;;;;;;;9.30;8.40;;;;;;;;;;6221262;28;20531;-76
2022/06/05 01:42:05;;;;;;;10.37;9.27;;;;;;;;;;6232246;28;20232;-75
2022/06/05 01:45:33;;;;;;;10.37;9.13;;;;;;;;;;6230969;28;20230;-76
2022/06/05 01:48:56;;;;;;;11.80;10.57;;;;;;;;;;6231349;28;20654;-76
2022/06/05 01:52:19;;;;;;;11.27;10.30;;;;;;;;;;6231066;28;20236;-76
2022/06/05 01:55:43;;;;;;;11.17;10.27;;;;;;;;;;6223743;28;20629;-76
2022/06/05 01:59:07;;;;;;;11.67;10.67;;;;;;;;;;6232094;28;20761;-76
2022/06/05 02:02:33;;;;;;;10.50;9.60;;;;;;;;;;6224774;28;20233;-76
2022/06/05 02:05:57;;;;;;;11.20;9.77;;;;;;;;;;6210602;28;20296;-76
2022/06/05 02:09:19;;;;;;;10.20;9.17;;;;;;;;;;6202522;28;20273;-77
2022/06/05 02:12:40;;;;;;;10.57;9.70;;;;;;;;;;6228229;28;20260;-76
2022/06/05 02:16:00;;;;;;;11.77;10.37;;;;;;;;;;6225305;28;20233;-77
2022/06/05 02:19:23;;;;;;;12.33;11.13;;;;;;;;;;6225647;28;20441;-76
2022/06/05 02:22:45;;;;;;;10.93;10.03;;;;;;;;;;6223822;28;20229;-76
2022/06/05 02:26:07;;;;;;;11.90;10.70;;;;;;;;;;6229710;28;20315;-75
2022/06/05 02:29:27;;;;;;;10.70;9.80;;;;;;;;;;6226185;28;20228;-75
2022/06/05 02:32:56;;;;;;;11.73;10.77;;;;;;;;;;6230302;28;20229;-75
2022/06/05 02:36:20;;;;;;;11.27;10.10;;;;;;;;;;6227763;28;20231;-74
2022/06/05 02:39:44;;;;;;;12.43;11.33;;;;;;;;;;6228961;28;20224;-75
2022/06/05 02:43:07;;;;;;;10.60;9.67;;;;;;;;;;6230946;28;20509;-75
2022/06/05 02:46:31;;;;;;;11.10;10.13;;;;;;;;;;6196212;28;20225;-76
2022/06/05 02:49:56;;;;;;;11.47;10.57;;;;;;;;;;6198655;28;20225;-76
2022/06/05 02:53:18;;;;;;;11.57;10.47;;;;;;;;;;6204095;28;20312;-74
2022/06/05 02:56:39;;;;;;;12.00;10.83;;;;;;;;;;6200524;28;20229;-76
2022/06/05 02:59:59;;;;;;;11.93;10.87;;;;;;;;;;6197829;28;20257;-76
2022/06/05 03:03:28;;;;;;;13.20;12.00;;;;;;;;;;6199508;28;20233;-76
2022/06/05 03:06:48;;;;;;;13.30;12.10;;;;;;;;;;6208164;28;20552;-73
2022/06/05 03:10:10;;;;;;;12.37;11.07;;;;;;;;;;6200238;28;20646;-74
2022/06/05 03:13:31;;;;;;;12.27;11.10;;;;;;;;;;6202197;28;20240;-74
2022/06/05 03:16:52;;;;;;;11.77;10.57;;;;;;;;;;6208616;28;20221;-74
2022/06/05 03:20:13;;;;;;;10.83;9.93;;;;;;;;;;6199169;28;20236;-74
2022/06/05 03:23:34;;;;;;;11.60;10.40;;;;;;;;;;6201828;28;21180;-75
2022/06/05 03:26:56;;;;;;;11.70;10.70;;;;;;;;;;6197472;28;20229;-74
2022/06/05 03:30:17;;;;;;;12.40;11.27;;;;;;;;;;6223274;28;20237;-75
2022/06/05 03:33:38;;;;;;;11.60;10.60;;;;;;;;;;6227997;28;20361;-75
2022/06/05 03:36:58;;;;;;;10.57;9.67;;;;;;;;;;6219439;28;20228;-75
2022/06/05 03:40:19;;;;;;;12.57;11.37;;;;;;;;;;6200472;28;20321;-75
2022/06/05 03:43:41;;;;;;;11.87;10.70;;;;;;;;;;6202779;28;20220;-75
2022/06/05 03:47:01;;;;;;;11.30;10.37;;;;;;;;;;6202284;28;20236;-76
2022/06/05 03:50:22;;;;;;;11.90;10.90;;;;;;;;;;6230093;28;20228;-76
2022/06/05 03:53:43;;;;;;;12.57;11.37;;;;;;;;;;6227632;28;20307;-76
2022/06/05 03:57:04;;;;;;;13.03;11.07;;;;;;;;;;6223648;28;20240;-75
2022/06/05 04:00:26;;;;;;;11.33;10.43;;;;;;;;;;6219409;28;20233;-75
2022/06/05 04:03:47;;;;;;;12.23;11.10;;;;;;;;;;6226068;28;20236;-75
2022/06/05 04:07:07;;;;;;;11.23;10.23;;;;;;;;;;6225345;28;20247;-75
2022/06/05 04:10:28;;;;;;;11.73;10.73;;;;;;;;;;6226435;28;20265;-75
2022/06/05 04:13:49;;;;;;;10.57;9.47;;;;;;;;;;6227725;28;20251;-74
2022/06/05 04:17:12;;;;;;;10.47;9.47;;;;;;;;;;6225983;28;20236;-76
2022/06/05 04:20:32;;;;;;;10.47;9.40;;;;;;;;;;6224329;28;20237;-74
2022/06/05 04:23:54;;;;;;;10.33;9.43;;;;;;;;;;6221507;28;20271;-76
2022/06/05 04:27:14;;;;;;;11.70;10.63;;;;;;;;;;6231711;28;20232;-75
2022/06/05 04:30:36;;;;;;;11.70;10.67;;;;;;;;;;6227870;28;20240;-75
2022/06/05 04:33:59;;;;;;;11.73;10.60;;;;;;;;;;6232670;28;20220;-75
2022/06/05 04:37:19;;;;;;;10.03;9.03;;;;;;;;;;6221998;28;20236;-75
2022/06/05 04:40:39;;;;;;;12.73;11.37;;;;;;;;;;6229140;28;20852;-75
2022/06/05 04:44:00;;;;;;;11.47;10.30;;;;;;;;;;6227265;28;20234;-75
2022/06/05 04:47:21;;;;;;;11.10;10.20;;;;;;;;;;6212106;28;20232;-74
2022/06/05 04:50:43;;;;;;;11.73;10.53;;;;;;;;;;6200689;28;20228;-74
2022/06/05 04:54:04;;;;;;;11.23;10.27;;;;;;;;;;6224004;28;20471;-74
2022/06/05 04:57:25;;;;;;;10.87;9.77;;;;;;;;;;6228131;28;20322;-74
2022/06/05 05:00:46;;;;;;;11.03;10.17;;;;;;;;;;6223928;28;20232;-75
2022/06/05 05:04:08;;;;;;;10.50;9.50;;;;;;;;;;6226254;28;20232;-75
2022/06/05 05:07:30;;;;;;;10.70;9.57;;;;;;;;;;6229195;28;20232;-75
2022/06/05 05:10:51;;;;;;;26.43;23.60;;;;;;;;;;6206669;28;20249;-76
2022/06/05 05:14:11;;;;;;;21.03;19.20;;;;;;;;;;6205715;28;20229;-77
2022/06/05 05:17:32;;;;;;;12.30;10.83;;;;;;;;;;6201360;28;20320;-74
2022/06/05 05:20:52;;;;;;;10.77;9.87;;;;;;;;;;6206298;28;20229;-74
2022/06/05 05:24:14;;;;;;;10.40;9.50;;;;;;;;;;6202549;28;20225;-76
2022/06/05 05:27:35;;;;;;;12.90;11.60;;;;;;;;;;6202139;28;20304;-76
2022/06/05 05:30:56;;;;;;;12.57;11.37;;;;;;;;;;6205991;28;20245;-75
2022/06/05 05:34:16;;;;;;;10.53;9.70;;;;;;;;;;6203680;28;20332;-75
2022/06/05 05:37:37;;;;;;;9.70;8.90;;;;;;;;;;6203575;28;20241;-76
2022/06/05 05:44:38;;;;;;;10.33;9.40;;;;;;;;;;6229720;28;20836;-75
2022/06/05 05:47:59;;;;;;;8.73;7.87;;;;;;;;;;6203397;28;20569;-76
2022/06/05 05:51:20;;;;;;;8.93;7.93;;;;;;;;;;6204819;28;20233;-77
2022/06/05 05:54:40;;;;;;;8.73;8.03;;;;;;;;;;6206449;28;20637;-76
2022/06/05 05:58:02;;;;;;;7.43;6.73;;;;;;;;;;6214957;28;20229;-76
2022/06/05 06:01:23;;;;;;;7.97;7.17;;;;;;;;;;6206626;28;20481;-76
2022/06/05 06:04:44;;;;;;;7.70;7.10;;;;;;;;;;6200378;28;20320;-77
2022/06/05 06:08:04;;;;;;;7.53;6.83;;;;;;;;;;6203913;28;20343;-76
2022/06/05 06:11:25;;;;;;;7.33;6.73;;;;;;;;;;6201546;28;20225;-78
2022/06/05 06:14:47;;;;;;;7.37;6.53;;;;;;;;;;6204379;28;20611;-77
2022/06/05 06:18:07;;;;;;;6.70;6.13;;;;;;;;;;6197059;28;20531;-76
2022/06/05 06:21:28;;;;;;;6.37;5.87;;;;;;;;;;6224435;28;20232;-76
2022/06/05 06:24:49;;;;;;;7.05;6.43;;;;;;;;;;6229530;28;20315;-76
2022/06/05 06:28:10;;;;;;;6.55;6.00;;;;;;;;;;6228479;28;20232;-75
2022/06/05 06:31:33;;;;;;;6.53;6.03;;;;;;;;;;6224098;28;20240;-76
2022/06/05 06:34:53;;;;;;;6.38;5.88;;;;;;;;;;6213054;28;20231;-76
2022/06/05 06:38:13;;;;;;;6.72;6.03;;;;;;;;;;6224722;28;20221;-76
2022/06/05 06:41:34;;;;;;;6.72;5.72;;;;;;;;;;6226591;28;20224;-76
2022/06/05 06:44:56;;;;;;;6.00;5.30;;;;;;;;;;6207614;28;20277;-76
2022/06/05 06:48:18;;;;;;;5.50;5.10;;;;;;;;;;6206358;28;20599;-76
2022/06/05 06:51:39;;;;;;;5.32;4.90;;;;;;;;;;6203945;28;20229;-76
2022/06/05 06:54:59;;;;;;;4.95;4.53;;;;;;;;;;6204319;28;20221;-76
2022/06/05 06:58:20;;;;;;;8.30;5.68;;;;;;;;;;6195892;28;20233;-75
2022/06/05 07:01:40;;;;;;;3.63;3.35;;;;;;;;;;6184484;28;20229;-74
2022/06/05 07:05:02;;;;;;;4.50;3.25;;;;;;;;;;6195853;28;20226;-74
2022/06/05 07:08:23;;;;;;;4.75;4.25;;;;;;;;;;6194391;28;20677;-74
2022/06/05 07:11:44;;;;;;;5.78;3.90;;;;;;;;;;6209890;28;20221;-74
2022/06/05 07:15:05;;;;;;;3.97;3.65;;;;;;;;;;6206628;28;20233;-75
2022/06/05 07:18:26;;;;;;;3.75;3.47;;;;;;;;;;6212141;28;20264;-74
2022/06/05 07:21:48;;;;;;;22.88;4.35;;;;;;;;;;6220547;28;20798;-75
2022/06/05 07:25:09;;;;;;;5.20;4.70;;;;;;;;;;6226953;28;20229;-75
2022/06/05 07:28:29;;;;;;;4.90;4.07;;;;;;;;;;6226813;28;20764;-76
2022/06/05 07:31:50;;;;;;;5.10;4.60;;;;;;;;;;6202984;28;20229;-75
2022/06/05 07:35:12;;;;;;;4.75;4.35;;;;;;;;;;6199630;28;20689;-76
2022/06/05 07:38:34;;;;;;;3.63;3.22;;;;;;;;;;6205399;28;20237;-76
2022/06/05 07:41:58;;;;;;;4.90;4.43;;;;;;;;;;6202490;28;20237;-76
2022/06/05 07:45:19;;;;;;;4.50;3.85;;;;;;;;;;6208841;28;20233;-75
2022/06/05 07:48:39;;;;;;;4.32;4.03;;;;;;;;;;6200522;28;20786;-76
2022/06/05 07:55:39;;;;;;;3.83;3.63;;;;;;;;;;6224546;28;20315;-74
2022/06/05 07:58:59;;;;;;;4.45;4.05;;;;;;;;;;6200611;28;20566;-73
2022/06/05 08:02:21;;;;;;;3.97;3.58;;;;;;;;;;6189298;28;20242;-74
2022/06/05 08:05:41;;;;;;;3.42;3.17;;;;;;;;;;6197879;28;20241;-73
2022/06/05 08:09:02;;;;;;;4.10;3.80;;;;;;;;;;6207615;28;20232;-72
2022/06/05 08:12:25;;;;;;;3.78;3.40;;;;;;;;;;6207943;28;21166;-72
2022/06/05 08:15:46;;;;;;;4.10;3.25;;;;;;;;;;6218392;28;20240;-74
2022/06/05 08:19:07;;;;;;;4.05;3.65;;;;;;;;;;6204368;28;20252;-72
2022/06/05 08:22:28;;;;;;;3.60;3.40;;;;;;;;;;6199272;28;20425;-73
2022/06/05 08:25:48;;;;;;;4.97;4.45;;;;;;;;;;6226625;28;20512;-73
2022/06/05 08:29:10;;;;;;;3.47;3.17;;;;;;;;;;6210676;28;20232;-72
2022/06/05 08:32:31;;;;;;;4.05;3.75;;;;;;;;;;6232204;28;20583;-73
2022/06/05 08:35:51;;;;;;;3.28;3.00;;;;;;;;;;6227726;28;20221;-73
2022/06/05 08:43:03;;;;;;;3.25;3.05;;;;;;;;;;6224226;28;20646;-73
2022/06/05 08:46:27;;;;;;;3.58;3.28;;;;;;;;;;6210018;28;20241;-73
2022/06/05 08:49:49;;;;;;;3.70;3.40;;;;;;;;;;6207710;28;20229;-72
2022/06/05 08:53:14;;;;;;;4.38;3.97;;;;;;;;;;6213202;28;20582;-74
2022/06/05 08:56:36;;;;;;;3.75;3.45;;;;;;;;;;6204561;28;20232;-72
2022/06/05 09:00:02;;;;;;;3.28;3.03;;;;;;;;;;6196980;28;20226;-73
2022/06/05 09:03:30;;;;;;;3.42;3.22;;;;;;;;;;6209489;28;20229;-73
2022/06/05 09:06:54;;;;;;;3.45;3.25;;;;;;;;;;6208883;28;20233;-73
2022/06/05 09:10:16;;;;;;;3.55;3.25;;;;;;;;;;6200577;28;20581;-73
2022/06/05 09:13:42;;;;;;;4.47;3.25;;;;;;;;;;6219575;28;20236;-73
2022/06/05 09:17:06;;;;;;;2.80;2.60;;;;;;;;;;6212758;28;20522;-74
2022/06/05 09:20:32;;;;;;;3.95;3.65;;;;;;;;;;6203180;28;20245;-73
2022/06/05 09:24:04;;;;;;;3.33;3.03;;;;;;;;;;6207658;28;20225;-73
2022/06/05 09:27:28;;;;;;;5.18;3.97;;;;;;;;;;6220133;28;20256;-73
2022/06/05 09:30:52;;;;;;;8.75;7.72;;;;;;;;;;6215041;28;20244;-72
2022/06/05 09:34:14;;;;;;;2.92;2.72;;;;;;;;;;6197537;28;20241;-74
2022/06/05 09:37:40;;;;;;;2.83;2.45;;;;;;;;;;6229657;28;21053;-73
2022/06/05 09:41:08;;;;;;;3.28;2.92;;;;;;;;;;6234368;28;20228;-73
2022/06/05 09:44:38;;;;;;;3.05;2.85;;;;;;;;;;6231426;28;20236;-74
2022/06/05 09:48:03;;;;;;;3.72;3.42;;;;;;;;;;6231233;28;20689;-72
2022/06/05 09:51:25;;;;;;;2.40;2.17;;;;;;;;;;6235059;28;20240;-66
2022/06/05 09:54:48;;;;;;;3.45;3.17;;;;;;;;;;6214189;28;20229;-65
2022/06/05 09:58:25;;;;;;;3.00;2.80;;;;;;;;;;6205896;28;20229;-65
2022/06/05 10:01:50;;;;;;;5.22;4.88;;;;;;;;;;6210967;28;20236;-66
2022/06/05 10:05:12;;;;;;;3.35;3.15;;;;;;;;;;6207240;28;20229;-66
2022/06/05 10:08:37;;;;;;;3.17;2.88;;;;;;;;;;6225432;28;20225;-67
2022/06/05 10:12:00;;;;;;;4.13;3.83;;;;;;;;;;6226111;28;20233;-69
2022/06/05 10:15:24;;;;;;;3.72;3.45;;;;;;;;;;6230615;28;20804;-67
2022/06/05 10:18:46;;;;;;;3.92;3.60;;;;;;;;;;6222776;28;20289;-67
2022/06/05 10:22:11;;;;;;;3.45;3.22;;;;;;;;;;6237201;28;20550;-67
2022/06/05 10:25:34;;;;;;;3.72;3.53;;;;;;;;;;6234767;28;20229;-66
2022/06/05 10:29:11;;;;;;;3.75;3.17;;;;;;;;;;6235653;28;20232;-66
2022/06/05 10:32:39;;;;;;;3.80;3.50;;;;;;;;;;6236957;28;20315;-67
2022/06/05 10:36:02;;;;;;;5.40;4.30;;;;;;;;;;6236344;28;20640;-67
2022/06/05 10:39:26;;;;;;;4.57;4.20;;;;;;;;;;6232797;28;20252;-69
2022/06/05 10:42:52;;;;;;;3.22;3.03;;;;;;;;;;6214922;28;20331;-67
2022/06/05 10:46:21;;;;;;;3.85;3.65;;;;;;;;;;6212574;28;20225;-67
2022/06/05 10:49:46;;;;;;;4.30;4.00;;;;;;;;;;6236347;28;20891;-67
2022/06/05 10:53:11;;;;;;;4.07;3.65;;;;;;;;;;6205732;28;20470;-66
2022/06/05 10:56:35;;;;;;;4.85;4.45;;;;;;;;;;6216171;28;20233;-67
2022/06/05 10:59:59;;;;;;;4.53;4.15;;;;;;;;;;6209822;28;20233;-66
2022/06/05 11:03:27;;;;;;;3.95;3.65;;;;;;;;;;6211530;28;20964;-67
2022/06/05 11:06:53;;;;;;;3.78;3.55;;;;;;;;;;6209061;28;20529;-67
2022/06/05 11:10:17;;;;;;;12.02;11.13;;;;;;;;;;6214789;28;20320;-66
2022/06/05 11:13:42;;;;;;;4.15;3.75;;;;;;;;;;6214339;28;20229;-67
2022/06/05 11:17:16;;;;;;;4.53;4.03;;;;;;;;;;6214090;28;20229;-67
2022/06/05 11:20:41;;;;;;;3.63;3.33;;;;;;;;;;6213246;28;20320;-68
2022/06/05 11:24:02;;;;;;;4.40;4.10;;;;;;;;;;6237596;28;20232;-66
2022/06/05 11:27:28;;;;;;;3.67;3.38;;;;;;;;;;6239555;28;20327;-67
2022/06/05 11:30:50;;;;;;;3.85;3.55;;;;;;;;;;6237495;28;20231;-67
2022/06/05 11:34:18;;;;;;;7.65;6.68;;;;;;;;;;6237980;28;20228;-67
2022/06/05 11:37:45;;;;;;;3.17;2.97;;;;;;;;;;6235584;28;20251;-67
2022/06/05 11:41:13;;;;;;;4.18;3.78;;;;;;;;;;6241409;28;20259;-67
2022/06/05 11:44:38;;;;;;;3.58;2.80;;;;;;;;;;6241154;28;20216;-66
2022/06/05 11:48:03;;;;;;;4.20;3.78;;;;;;;;;;6234673;28;20641;-67
2022/06/05 11:51:26;;;;;;;3.50;3.20;;;;;;;;;;6237393;28;20251;-66
2022/06/05 11:54:51;;;;;;;3.95;3.30;;;;;;;;;;6235550;28;20224;-66
2022/06/05 11:58:16;;;;;;;4.15;3.85;;;;;;;;;;6234838;28;20275;-68
2022/06/05 12:01:43;;;;;;;2.83;2.60;;;;;;;;;;6233371;28;20236;-67
2022/06/05 12:05:08;;;;;;;3.08;2.85;;;;;;;;;;6230678;28;20530;-67
2022/06/05 12:08:31;;;;;;;3.28;3.08;;;;;;;;;;6237174;28;20402;-68
2022/06/05 12:11:57;;;;;;;4.00;3.70;;;;;;;;;;6228557;28;20241;-67
2022/06/05 12:15:21;;;;;;;2.83;2.63;;;;;;;;;;6236802;28;20236;-66
2022/06/05 12:18:48;;;;;;;4.53;3.92;;;;;;;;;;6234827;28;20228;-67
2022/06/05 12:22:13;;;;;;;4.38;4.07;;;;;;;;;;6231991;28;20224;-68
2022/06/05 12:25:38;;;;;;;3.80;3.42;;;;;;;;;;6232740;28;20236;-67
2022/06/05 12:29:02;;;;;;;2.90;2.70;;;;;;;;;;6232895;28;20239;-68
2022/06/05 12:32:31;;;;;;;6.25;5.65;;;;;;;;;;6222913;28;20225;-67
2022/06/05 12:35:53;;;;;;;5.10;4.70;;;;;;;;;;6216629;28;20224;-69
2022/06/05 12:39:18;;;;;;;4.43;4.07;;;;;;;;;;6221533;28;20493;-67
2022/06/05 12:42:42;;;;;;;2.05;1.80;;;;;;;;;;6216420;28;20241;-68
2022/06/05 12:46:13;;;;;;;3.47;2.97;;;;;;;;;;6227052;28;20220;-68
2022/06/05 12:49:45;;;;;;;1.80;1.70;;;;;;;;;;6222646;28;20270;-68
2022/06/05 12:53:11;;;;;;;2.38;2.28;;;;;;;;;;6228058;28;20436;-68
2022/06/05 12:56:38;;;;;;;1.85;1.75;;;;;;;;;;6193043;28;20503;-67
2022/06/05 13:00:01;;;;;;;2.83;2.45;;;;;;;;;;6193344;28;20333;-68
2022/06/05 13:03:26;;;;;;;2.20;2.10;;;;;;;;;;6206389;28;20241;-69
2022/06/05 13:06:52;;;;;;;2.70;2.50;;;;;;;;;;6207926;28;20225;-69
2022/06/05 13:10:27;;;;;;;1.95;1.65;;;;;;;;;;6206403;28;20622;-68
2022/06/05 13:13:52;;;;;;;3.63;1.80;;;;;;;;;;6202912;28;21014;-69
2022/06/05 13:17:18;;;;;;;2.30;2.20;;;;;;;;;;6215600;28;20527;-66
2022/06/05 13:20:41;;;;;;;1.95;1.85;;;;;;;;;;6210810;28;20565;-67
2022/06/05 13:24:11;;;;;;;2.30;2.20;;;;;;;;;;6210301;28;20602;-68
2022/06/05 13:27:47;;;;;;;3.33;2.25;;;;;;;;;;6211846;28;20307;-69
2022/06/05 13:31:15;;;;;;;2.47;2.28;;;;;;;;;;6208425;28;20225;-67
2022/06/05 13:34:39;;;;;;;2.40;2.30;;;;;;;;;;6210367;28;20240;-67
2022/06/05 13:38:05;;;;;;;2.42;1.83;;;;;;;;;;6229304;28;20255;-67
2022/06/05 13:41:27;;;;;;;2.33;2.22;;;;;;;;;;6221830;28;20232;-67
2022/06/05 13:44:51;;;;;;;2.40;2.20;;;;;;;;;;6235132;28;20677;-67
2022/06/05 13:48:15;;;;;;;2.60;2.00;;;;;;;;;;6232907;28;20327;-68
2022/06/05 13:51:40;;;;;;;2.67;1.73;;;;;;;;;;6227819;28;20244;-67
2022/06/05 13:55:07;;;;;;;1.80;1.70;;;;;;;;;;6235565;28;20228;-68
2022/06/05 13:58:32;;;;;;;2.38;2.15;;;;;;;;;;6235237;28;20303;-67
2022/06/05 14:02:07;;;;;;;1.98;1.88;;;;;;;;;;6230649;28;20232;-66
2022/06/05 14:05:33;;;;;;;1.58;1.48;;;;;;;;;;6227461;28;20232;-69
2022/06/05 14:08:56;;;;;;;3.22;2.30;;;;;;;;;;6234095;28;20224;-69
2022/06/05 14:12:21;;;;;;;2.42;2.10;;;;;;;;;;6222699;28;20237;-68
2022/06/05 14:15:44;;;;;;;2.33;2.13;;;;;;;;;;6223089;28;20257;-68
2022/06/05 14:19:05;;;;;;;3.65;2.97;;;;;;;;;;6232857;28;20590;-66
2022/06/05 14:22:27;;;;;;;2.90;1.88;;;;;;;;;;6228843;28;20613;-67
2022/06/05 14:25:51;;;;;;;1.58;1.48;;;;;;;;;;6219214;28;20241;-66
2022/06/05 14:29:15;;;;;;;1.45;1.35;;;;;;;;;;6214816;28;20623;-66
2022/06/05 14:32:38;;;;;;;1.65;1.55;;;;;;;;;;6212167;28;20244;-67
2022/06/05 14:35:59;;;;;;;1.80;1.70;;;;;;;;;;6208348;28;20603;-65
2022/06/05 14:39:24;;;;;;;3.13;1.73;;;;;;;;;;6203157;28;20316;-68
2022/06/05 14:42:49;;;;;;;3.47;3.28;;;;;;;;;;6200883;28;20233;-68
2022/06/05 14:46:18;;;;;;;2.40;2.30;;;;;;;;;;6202823;28;20347;-66
2022/06/05 14:49:41;;;;;;;1.55;1.45;;;;;;;;;;6202791;28;20233;-67
2022/06/05 14:53:07;;;;;;;1.70;1.60;;;;;;;;;;6222939;28;20229;-67
2022/06/05 15:00:09;;;;;;;2.10;1.98;;;;;;;;;;6232333;28;20224;-66
2022/06/05 15:03:34;;;;;;;2.22;2.03;;;;;;;;;;6225677;28;20229;-67
2022/06/05 15:06:57;;;;;;;1.33;1.33;;;;;;;;;;6210798;28;20233;-68
2022/06/05 15:10:28;;;;;;;4.07;3.22;;;;;;;;;;6198943;28;20232;-66
2022/06/05 15:13:52;;;;;;;4.55;4.25;;;;;;;;;;6203630;28;20229;-67
2022/06/05 15:17:19;;;;;;;2.53;2.33;;;;;;;;;;6204496;28;20253;-68
2022/06/05 15:20:46;;;;;;;2.95;1.75;;;;;;;;;;6199514;28;20228;-67
2022/06/05 15:24:12;;;;;;;3.00;2.03;;;;;;;;;;6199113;28;20257;-67
2022/06/05 15:27:39;;;;;;;1.73;1.63;;;;;;;;;;6204080;28;20735;-66
2022/06/05 15:31:03;;;;;;;1.60;1.50;;;;;;;;;;6210811;28;20539;-68
2022/06/05 15:34:31;;;;;;;1.83;1.73;;;;;;;;;;6196759;28;20511;-67
2022/06/05 15:38:00;;;;;;;4.47;4.15;;;;;;;;;;6206948;28;20228;-67
2022/06/05 15:41:36;;;;;;;1.90;1.73;;;;;;;;;;6205908;28;20639;-67
2022/06/05 15:45:11;;;;;;;1.77;1.67;;;;;;;;;;6196993;28;20637;-69
2022/06/05 15:48:41;;;;;;;3.33;1.95;;;;;;;;;;6209124;28;20232;-66
2022/06/05 15:52:13;;;;;;;2.30;2.10;;;;;;;;;;6208347;28;20228;-68
2022/06/05 15:55:38;;;;;;;4.18;3.80;;;;;;;;;;6218277;28;20224;-68
2022/06/05 15:59:05;;;;;;;3.65;3.38;;;;;;;;;;6204929;28;20509;-67
2022/06/05 16:02:27;;;;;;;2.40;2.28;;;;;;;;;;6204041;28;20225;-68
2022/06/05 16:05:49;;;;;;;2.78;2.58;;;;;;;;;;6203493;28;20273;-68
2022/06/05 16:09:14;;;;;;;3.88;3.58;;;;;;;;;;6212046;28;20259;-68
2022/06/05 16:12:37;;;;;;;4.38;4.07;;;;;;;;;;6228932;28;20532;-69
2022/06/05 16:16:02;;;;;;;4.03;3.75;;;;;;;;;;6231109;28;20236;-68
2022/06/05 16:19:27;;;;;;;3.75;3.53;;;;;;;;;;6222894;28;20232;-68
2022/06/05 16:22:51;;;;;;;3.45;2.63;;;;;;;;;;6235164;28;20240;-66
2022/06/05 16:26:13;;;;;;;4.68;2.95;;;;;;;;;;6241589;28;20228;-69
2022/06/05 16:29:39;;;;;;;3.40;2.88;;;;;;;;;;6234411;28;20236;-66
2022/06/05 16:32:59;;;;;;;3.35;3.08;;;;;;;;;;6230285;28;20848;-68
2022/06/05 16:40:21;;;;;;;3.35;2.97;;;;;;;;;;6094223;29;20740;-67
2022/06/05 16:43:41;;;;;;;5.90;5.40;;;;;;;;;;6107130;28;20323;-68
2022/06/05 16:47:06;;;;;;;6.70;5.72;;;;;;;;;;6210056;28;20221;-67
2022/06/05 16:50:31;;;;;;;5.43;4.93;;;;;;;;;;6199801;28;20630;-66
2022/06/05 16:54:07;;;;;;;4.78;4.30;;;;;;;;;;6217527;28;20629;-69
2022/06/05 16:57:45;;;;;;;4.10;3.80;;;;;;;;;;6212064;28;20529;-67
2022/06/05 17:01:07;;;;;;;6.68;5.35;;;;;;;;;;6204227;28;20524;-70
2022/06/05 17:04:33;;;;;;;3.90;3.40;;;;;;;;;;6207086;28;20236;-67
2022/06/05 17:07:56;;;;;;;4.47;3.20;;;;;;;;;;6216247;28;20674;-68
2022/06/05 17:11:23;;;;;;;5.18;4.68;;;;;;;;;;6208807;28;20221;-68
2022/06/05 17:14:58;;;;;;;7.55;4.25;;;;;;;;;;6209468;28;20333;-70
2022/06/05 17:18:39;;;;;;;4.53;3.92;;;;;;;;;;6208519;28;20229;-67
2022/06/05 17:22:04;;;;;;;5.90;5.22;;;;;;;;;;6217255;28;20228;-77
2022/06/05 17:25:34;;;;;;;4.75;4.35;;;;;;;;;;6209179;28;20256;-83
2022/06/05 17:29:18;;;;;;;5.35;4.88;;;;;;;;;;6214560;28;20607;-91
2022/06/05 17:33:04;;;;;;;5.00;4.53;;;;;;;;;;6180617;28;20881;-88
2022/06/05 17:36:36;;;;;;;5.60;3.78;;;;;;;;;;6216601;28;20623;-88
2022/06/05 17:40:13;;;;;;;4.38;4.03;;;;;;;;;;6215632;28;20233;-73
2022/06/05 17:43:41;;;;;;;25.65;23.35;;;;;;;;;;6211713;28;20670;-75
2022/06/05 17:47:06;;;;;;;54.97;32.97;;;;;;;;;;6212274;28;20237;-74
2022/06/05 17:50:30;;;;;;;150.50;98.82;;;;;;;;;;6207755;28;20260;-74
2022/06/05 17:53:51;;;;;;;232.68;103.40;;;;;;;;;;6202241;28;20229;-69
2022/06/05 17:57:19;;;;;;;17.83;15.75;;;;;;;;;;6202661;28;20230;-73
2022/06/05 18:00:43;;;;;;;517.75;343.30;;;;;;;;;;6221985;28;20259;-73
2022/06/05 18:04:04;;;;;;;20.83;16.55;;;;;;;;;;6208840;28;20229;-80
2022/06/05 18:07:27;;;;;;;6.40;5.90;;;;;;;;;;6215384;28;20633;-75
2022/06/05 18:10:59;;;;;;;5.43;4.93;;;;;;;;;;6215805;28;20635;-86
2022/06/05 18:14:24;;;;;;;9.32;8.43;;;;;;;;;;6210860;28;20659;-83
2022/06/05 18:17:52;;;;;;;10.93;9.93;;;;;;;;;;6207270;28;20327;-85
2022/06/05 18:21:32;;;;;;;7.10;6.50;;;;;;;;;;6204592;28;20233;-86
2022/06/05 18:24:53;;;;;;;6.55;5.95;;;;;;;;;;6214120;28;21175;-88
2022/06/05 18:28:20;;;;;;;5.93;5.03;;;;;;;;;;6207896;28;20233;-86
2022/06/05 18:31:44;;;;;;;5.95;5.45;;;;;;;;;;6215751;28;20237;-85
2022/06/05 18:35:17;;;;;;;6.22;5.68;;;;;;;;;;6205300;28;20225;-84
2022/06/05 18:38:45;;;;;;;8.77;7.93;;;;;;;;;;6221149;28;20236;-84
2022/06/05 18:42:12;;;;;;;7.75;7.05;;;;;;;;;;6236892;28;20217;-86
2022/06/05 18:45:37;;;;;;;10.80;9.80;;;;;;;;;;6237794;28;20228;-85
2022/06/05 18:48:59;;;;;;;11.25;10.15;;;;;;;;;;6244522;28;20224;-85
2022/06/05 18:52:24;;;;;;;6.63;5.35;;;;;;;;;;6242102;28;20236;-86
2022/06/05 18:55:45;;;;;;;5.13;4.63;;;;;;;;;;6221499;28;20229;-82
2022/06/05 18:59:23;;;;;;;7.57;6.88;;;;;;;;;;6233607;28;20248;-79
2022/06/05 19:02:46;;;;;;;11.27;10.18;;;;;;;;;;6239513;28;20643;-73
2022/06/05 19:06:30;;;;;;;8.27;6.53;;;;;;;;;;6245524;28;20601;-85
2022/06/05 19:09:51;;;;;;;10.02;7.85;;;;;;;;;;6236070;28;20224;-87
2022/06/05 19:13:28;;;;;;;7.57;6.88;;;;;;;;;;6236752;28;20228;-80
2022/06/05 19:16:51;;;;;;;6.13;5.13;;;;;;;;;;6228152;28;20834;-79
2022/06/05 19:20:18;;;;;;;5.32;4.82;;;;;;;;;;6231636;28;20240;-80
2022/06/05 19:23:47;;;;;;;7.57;5.60;;;;;;;;;;6231183;28;20228;-83
2022/06/05 19:27:14;;;;;;;6.15;5.55;;;;;;;;;;6221334;28;20229;-82
2022/06/05 19:30:36;;;;;;;6.78;5.82;;;;;;;;;;6232512;28;20260;-80
2022/06/05 19:33:58;;;;;;;5.78;3.88;;;;;;;;;;6236287;28;20232;-82
2022/06/05 19:41:15;;;;;;;4.85;4.45;;;;;;;;;;6206291;28;20232;-80
2022/06/05 19:44:38;;;;;;;6.07;5.55;;;;;;;;;;6208445;28;20233;-81
2022/06/05 19:48:06;;;;;;;3.60;3.30;;;;;;;;;;6215885;28;20225;-81
2022/06/05 19:51:29;;;;;;;4.47;4.07;;;;;;;;;;6208836;28;20232;-81
2022/06/05 19:54:52;;;;;;;5.90;5.30;;;;;;;;;;6235707;28;20369;-81
2022/06/05 19:58:19;;;;;;;5.22;4.50;;;;;;;;;;6210761;28;20229;-78
2022/06/05 20:01:40;;;;;;;4.82;4.43;;;;;;;;;;6222403;28;20245;-79
2022/06/05 20:05:01;;;;;;;6.85;3.97;;;;;;;;;;6231034;28;20230;-79
2022/06/05 20:08:24;;;;;;;6.30;4.47;;;;;;;;;;6223016;28;20601;-79
2022/06/05 20:11:49;;;;;;;4.18;3.70;;;;;;;;;;6230705;28;20548;-80
2022/06/05 20:15:17;;;;;;;5.07;3.50;;;;;;;;;;6235713;28;20233;-81
2022/06/05 20:18:45;;;;;;;4.90;3.53;;;;;;;;;;6216248;28;20224;-79
2022/06/05 20:22:16;;;;;;;4.75;4.18;;;;;;;;;;6210949;28;20223;-80
2022/06/05 20:25:39;;;;;;;3.45;3.15;;;;;;;;;;6232641;28;20232;-80
2022/06/05 20:29:10;;;;;;;4.80;4.40;;;;;;;;;;6230044;28;21151;-80
2022/06/05 20:32:32;;;;;;;4.38;4.03;;;;;;;;;;6229313;28;20231;-81
2022/06/05 20:36:10;;;;;;;4.47;4.07;;;;;;;;;;6232457;28;20332;-79
2022/06/05 20:39:34;;;;;;;3.38;3.13;;;;;;;;;;6219048;28;20518;-81
2022/06/05 20:42:59;;;;;;;3.60;3.30;;;;;;;;;;6229169;28;20530;-80